Ames, Iowa
Current Conditions -  °F | °C
As of 11:04 AM on Saturday 20 Dec 2014 (Local Time) from KAMW Reporting Station
Haze Haze  
Wind Chill: -1°   Ceiling: 1400
Heat Index: -1°   Visibility: 6mi
Dew Point: -2°   Wind: 3mph
Humidity: 89%   Direction: 140°SE
Pressure: 30.17"   Gusts: NA
Location:  42.03°N, 93.62°W
Report Text: KAMW 201704Z AUTO 14003KT 6SM BR OVC014 M01/M02 A3017 RMK AO2 T10061022
Loading
Personal Weather Stations






























Interactive Weather Map New forecast layout! Learn more

10-Day Weather Forecast

Advertisements
Track Severe Weather on mobile